Manbij, Syria
Current Conditions -  °F | °C
As of 10:20 PM on Wednesday 17 Dec 2014 (Local Time) from LTAJ Reporting Station
Broken Clouds Broken Clouds  
Wind Chill:   Ceiling: 10000
Heat Index:   Visibility: 6mi
Dew Point:   Wind: 0mph
Humidity: 81%   Direction: NA
Pressure: 30.27"   Gusts: NA
Location:  36.54°N, 37.96°E
Report Text: LTAJ 171920Z 00000KT 9999 FEW040 BKN100 07/04 Q1025 NOSIG
Loading
Personal Weather Stations






























Interactive Weather Map New forecast layout! Learn more

10-Day Weather Forecast

Advertisements
Track Severe Weather on mobile